sensor_id;sensor_type;location;lat;lon;timestamp;temperature;humidity
5631;DHT22;2837;50.990;7.124;2023-03-01T06:02:01;2.10;99.90
5631;DHT22;2837;50.990;7.124;2023-03-01T06:04:27;2.20;99.90
5631;DHT22;2837;50.990;7.124;2023-03-01T06:06:52;2.10;99.90
5631;DHT22;2837;50.990;7.124;2023-03-01T06:09:18;2.10;99.90
5631;DHT22;2837;50.990;7.124;2023-03-01T06:11:43;2.10;99.90
5631;DHT22;2837;50.990;7.124;2023-03-01T06:14:10;2.10;99.90
5631;DHT22;2837;50.990;7.124;2023-03-01T06:16:38;2.10;99.90
5631;DHT22;2837;50.990;7.124;2023-03-01T06:19:03;2.10;99.90
5631;DHT22;2837;50.990;7.124;2023-03-01T06:21:29;2.10;99.90
5631;DHT22;2837;50.990;7.124;2023-03-01T06:23:54;2.10;99.90
5631;DHT22;2837;50.990;7.124;2023-03-01T06:26:20;2.10;99.90
5631;DHT22;2837;50.990;7.124;2023-03-01T06:28:45;2.10;99.90
5631;DHT22;2837;50.990;7.124;2023-03-01T06:31:11;2.20;99.90
5631;DHT22;2837;50.990;7.124;2023-03-01T06:33:37;2.10;99.90
5631;DHT22;2837;50.990;7.124;2023-03-01T06:36:03;2.10;99.90
5631;DHT22;2837;50.990;7.124;2023-03-01T06:38:28;2.10;99.90
5631;DHT22;2837;50.990;7.124;2023-03-01T06:40:55;2.10;99.90
5631;DHT22;2837;50.990;7.124;2023-03-01T06:43:22;2.10;99.90
5631;DHT22;2837;50.990;7.124;2023-03-01T06:45:48;2.10;99.90
5631;DHT22;2837;50.990;7.124;2023-03-01T06:48:14;2.10;99.90
5631;DHT22;2837;50.990;7.124;2023-03-01T06:50:39;2.10;99.90
5631;DHT22;2837;50.990;7.124;2023-03-01T06:53:05;2.10;99.90
5631;DHT22;2837;50.990;7.124;2023-03-01T06:55:31;2.10;99.90
5631;DHT22;2837;50.990;7.124;2023-03-01T06:57:58;2.10;99.90
5631;DHT22;2837;50.990;7.124;2023-03-01T07:00:25;2.10;99.90
5631;DHT22;2837;50.990;7.124;2023-03-01T07:02:51;2.20;99.90
5631;DHT22;2837;50.990;7.124;2023-03-01T07:05:17;2.30;99.90
5631;DHT22;2837;50.990;7.124;2023-03-01T07:07:42;2.30;99.90
5631;DHT22;2837;50.990;7.124;2023-03-01T07:10:09;2.30;99.90
5631;DHT22;2837;50.990;7.124;2023-03-01T07:12:34;2.30;99.90
5631;DHT22;2837;50.990;7.124;2023-03-01T07:15:00;2.30;99.90
5631;DHT22;2837;50.990;7.124;2023-03-01T07:17:26;2.30;99.90
5631;DHT22;2837;50.990;7.124;2023-03-01T07:19:51;2.30;99.90
5631;DHT22;2837;50.990;7.124;2023-03-01T07:22:17;2.40;99.90
5631;DHT22;2837;50.990;7.124;2023-03-01T07:24:43;2.40;99.90
5631;DHT22;2837;50.990;7.124;2023-03-01T07:27:08;2.50;99.90
5631;DHT22;2837;50.990;7.124;2023-03-01T07:29:34;2.40;99.90
5631;DHT22;2837;50.990;7.124;2023-03-01T07:32:02;2.50;99.90
5631;DHT22;2837;50.990;7.124;2023-03-01T07:34:27;2.50;99.90
5631;DHT22;2837;50.990;7.124;2023-03-01T07:36:53;2.50;99.90
5631;DHT22;2837;50.990;7.124;2023-03-01T07:39:18;2.50;99.90
5631;DHT22;2837;50.990;7.124;2023-03-01T07:41:44;2.50;99.90
5631;DHT22;2837;50.990;7.124;2023-03-01T07:44:10;2.50;99.90
5631;DHT22;2837;50.990;7.124;2023-03-01T07:46:36;2.50;99.90
5631;DHT22;2837;50.990;7.124;2023-03-01T07:49:01;2.60;99.90
5631;DHT22;2837;50.990;7.124;2023-03-01T07:51:27;2.70;99.90
5631;DHT22;2837;50.990;7.124;2023-03-01T07:53:53;2.70;99.90
5631;DHT22;2837;50.990;7.124;2023-03-01T07:56:18;2.70;99.90
5631;DHT22;2837;50.990;7.124;2023-03-01T07:58:45;2.70;99.90
5631;DHT22;2837;50.990;7.124;2023-03-01T08:01:14;2.80;99.90
5631;DHT22;2837;50.990;7.124;2023-03-01T08:03:40;2.80;99.90
5631;DHT22;2837;50.990;7.124;2023-03-01T08:06:07;2.90;99.90
5631;DHT22;2837;50.990;7.124;2023-03-01T08:08:34;2.90;99.90
5631;DHT22;2837;50.990;7.124;2023-03-01T08:11:01;2.90;99.90
5631;DHT22;2837;50.990;7.124;2023-03-01T08:13:27;2.90;99.90
5631;DHT22;2837;50.990;7.124;2023-03-01T08:15:53;3.00;99.90
5631;DHT22;2837;50.990;7.124;2023-03-01T08:18:19;3.00;99.90
5631;DHT22;2837;50.990;7.124;2023-03-01T08:20:45;3.10;99.90
5631;DHT22;2837;50.990;7.124;2023-03-01T08:23:11;3.10;99.90
5631;DHT22;2837;50.990;7.124;2023-03-01T08:25:37;3.10;99.90
5631;DHT22;2837;50.990;7.124;2023-03-01T08:28:03;3.10;99.90
5631;DHT22;2837;50.990;7.124;2023-03-01T08:30:29;3.20;99.90
5631;DHT22;2837;50.990;7.124;2023-03-01T08:32:54;3.30;99.90
5631;DHT22;2837;50.990;7.124;2023-03-01T08:35:21;3.30;99.90
5631;DHT22;2837;50.990;7.124;2023-03-01T08:37:47;3.30;99.90
5631;DHT22;2837;50.990;7.124;2023-03-01T08:40:13;3.40;99.90
5631;DHT22;2837;50.990;7.124;2023-03-01T08:42:41;3.40;96.50
5631;DHT22;2837;50.990;7.124;2023-03-01T08:45:08;3.50;95.90
5631;DHT22;2837;50.990;7.124;2023-03-01T08:47:34;3.50;99.90
5631;DHT22;2837;50.990;7.124;2023-03-01T08:50:00;3.50;99.10
5631;DHT22;2837;50.990;7.124;2023-03-01T08:52:25;3.50;99.90
5631;DHT22;2837;50.990;7.124;2023-03-01T08:54:52;3.50;99.90
5631;DHT22;2837;50.990;7.124;2023-03-01T08:57:18;3.70;93.10
5631;DHT22;2837;50.990;7.124;2023-03-01T08:59:43;3.70;92.60
5631;DHT22;2837;50.990;7.124;2023-03-01T09:02:12;3.70;93.50
5631;DHT22;2837;50.990;7.124;2023-03-01T09:04:39;3.80;92.80
5631;DHT22;2837;50.990;7.124;2023-03-01T09:07:05;3.90;91.40
5631;DHT22;2837;50.990;7.124;2023-03-01T09:09:31;3.90;90.20
5631;DHT22;2837;50.990;7.124;2023-03-01T09:11:56;3.90;90.80
5631;DHT22;2837;50.990;7.124;2023-03-01T09:14:22;3.90;82.70
5631;DHT22;2837;50.990;7.124;2023-03-01T09:16:48;4.00;79.30
5631;DHT22;2837;50.990;7.124;2023-03-01T09:19:14;4.00;80.90
5631;DHT22;2837;50.990;7.124;2023-03-01T09:21:39;4.10;82.70
5631;DHT22;2837;50.990;7.124;2023-03-01T09:24:06;4.10;80.80
5631;DHT22;2837;50.990;7.124;2023-03-01T09:26:31;4.10;79.80
5631;DHT22;2837;50.990;7.124;2023-03-01T09:28:57;4.10;77.20
5631;DHT22;2837;50.990;7.124;2023-03-01T09:31:24;4.10;79.80
5631;DHT22;2837;50.990;7.124;2023-03-01T09:33:52;4.20;78.10
5631;DHT22;2837;50.990;7.124;2023-03-01T09:36:20;4.20;77.80
5631;DHT22;2837;50.990;7.124;2023-03-01T09:38:47;4.20;76.10
5631;DHT22;2837;50.990;7.124;2023-03-01T09:41:21;4.20;75.20
5631;DHT22;2837;50.990;7.124;2023-03-01T09:43:56;4.30;75.20
5631;DHT22;2837;50.990;7.124;2023-03-01T09:46:25;4.20;77.10
5631;DHT22;2837;50.990;7.124;2023-03-01T09:49:01;4.30;74.60
5631;DHT22;2837;50.990;7.124;2023-03-01T09:51:30;4.30;73.90
5631;DHT22;2837;50.990;7.124;2023-03-01T09:53:57;4.40;73.50
5631;DHT22;2837;50.990;7.124;2023-03-01T10:09:38;4.50;73.90
5631;DHT22;2837;50.990;7.124;2023-03-01T10:12:10;4.60;72.70
5631;DHT22;2837;50.990;7.124;2023-03-01T10:15:00;4.70;71.70
5631;DHT22;2837;50.990;7.124;2023-03-01T10:17:35;4.70;72.10
5631;DHT22;2837;50.990;7.124;2023-03-01T10:20:21;4.70;71.00
5631;DHT22;2837;50.990;7.124;2023-03-01T10:22:47;4.80;70.20
5631;DHT22;2837;50.990;7.124;2023-03-01T10:28:20;4.80;68.50
5631;DHT22;2837;50.990;7.124;2023-03-01T10:30:49;4.80;68.60
5631;DHT22;2837;50.990;7.124;2023-03-01T10:33:21;4.90;69.00
5631;DHT22;2837;50.990;7.124;2023-03-01T10:35:47;4.90;70.00
5631;DHT22;2837;50.990;7.124;2023-03-01T10:38:15;4.90;69.50
5631;DHT22;2837;50.990;7.124;2023-03-01T10:41:05;5.00;69.00
5631;DHT22;2837;50.990;7.124;2023-03-01T10:43:55;5.10;70.20
5631;DHT22;2837;50.990;7.124;2023-03-01T10:46:35;5.10;69.00
5631;DHT22;2837;50.990;7.124;2023-03-01T10:49:21;5.10;67.70
5631;DHT22;2837;50.990;7.124;2023-03-01T10:51:49;5.20;67.90
5631;DHT22;2837;50.990;7.124;2023-03-01T10:54:29;5.20;66.20
5631;DHT22;2837;50.990;7.124;2023-03-01T10:57:05;5.20;66.00
5631;DHT22;2837;50.990;7.124;2023-03-01T10:59:33;5.30;65.40
5631;DHT22;2837;50.990;7.124;2023-03-01T11:02:25;5.30;65.20
5631;DHT22;2837;50.990;7.124;2023-03-01T11:05:02;5.40;64.00
5631;DHT22;2837;50.990;7.124;2023-03-01T11:07:28;5.40;62.80
5631;DHT22;2837;50.990;7.124;2023-03-01T11:09:54;5.40;63.80
5631;DHT22;2837;50.990;7.124;2023-03-01T11:12:20;5.40;63.30
5631;DHT22;2837;50.990;7.124;2023-03-01T11:14:53;5.50;61.80
5631;DHT22;2837;50.990;7.124;2023-03-01T11:17:29;5.50;60.80
5631;DHT22;2837;50.990;7.124;2023-03-01T11:23:04;5.60;60.30
5631;DHT22;2837;50.990;7.124;2023-03-01T11:25:35;5.60;59.70
5631;DHT22;2837;50.990;7.124;2023-03-01T11:28:04;5.70;59.30
5631;DHT22;2837;50.990;7.124;2023-03-01T11:30:58;5.70;59.20
5631;DHT22;2837;50.990;7.124;2023-03-01T11:33:46;5.80;58.10
5631;DHT22;2837;50.990;7.124;2023-03-01T11:38:56;5.80;59.70
5631;DHT22;2837;50.990;7.124;2023-03-01T11:41:30;5.80;59.70
5631;DHT22;2837;50.990;7.124;2023-03-01T11:43:57;5.90;58.70
5631;DHT22;2837;50.990;7.124;2023-03-01T11:54:30;6.10;57.80
5631;DHT22;2837;50.990;7.124;2023-03-01T11:57:07;6.10;57.70
5631;DHT22;2837;50.990;7.124;2023-03-01T11:59:45;6.10;58.30
5631;DHT22;2837;50.990;7.124;2023-03-01T12:05:46;6.20;56.20
5631;DHT22;2837;50.990;7.124;2023-03-01T12:09:17;6.30;56.00
5631;DHT22;2837;50.990;7.124;2023-03-01T12:14:09;6.30;56.00
5631;DHT22;2837;50.990;7.124;2023-03-01T12:17:00;6.40;54.40
5631;DHT22;2837;50.990;7.124;2023-03-01T12:33:25;6.60;54.10
5631;DHT22;2837;50.990;7.124;2023-03-01T12:36:10;6.60;55.50
5631;DHT22;2837;50.990;7.124;2023-03-01T12:44:24;6.80;54.30
5631;DHT22;2837;50.990;7.124;2023-03-01T12:49:57;6.80;53.70
5631;DHT22;2837;50.990;7.124;2023-03-01T12:52:53;6.80;53.30
5631;DHT22;2837;50.990;7.124;2023-03-01T12:55:33;6.90;53.20
5631;DHT22;2837;50.990;7.124;2023-03-01T12:58:07;6.90;52.80
5631;DHT22;2837;50.990;7.124;2023-03-01T13:00:51;7.00;53.50
5631;DHT22;2837;50.990;7.124;2023-03-01T13:03:31;7.00;53.80
5631;DHT22;2837;50.990;7.124;2023-03-01T13:06:08;7.20;53.70
5631;DHT22;2837;50.990;7.124;2023-03-01T13:09:04;7.10;53.40
5631;DHT22;2837;50.990;7.124;2023-03-01T13:11:33;7.20;53.70
5631;DHT22;2837;50.990;7.124;2023-03-01T13:16:54;7.20;53.90
5631;DHT22;2837;50.990;7.124;2023-03-01T13:19:28;7.20;54.20
5631;DHT22;2837;50.990;7.124;2023-03-01T13:22:28;7.30;53.80
5631;DHT22;2837;50.990;7.124;2023-03-01T13:25:03;7.30;54.40
5631;DHT22;2837;50.990;7.124;2023-03-01T13:27:36;7.30;54.60
5631;DHT22;2837;50.990;7.124;2023-03-01T13:30:02;7.30;54.50
5631;DHT22;2837;50.990;7.124;2023-03-01T13:32:34;7.30;54.30
5631;DHT22;2837;50.990;7.124;2023-03-01T13:37:51;7.40;53.40
5631;DHT22;2837;50.990;7.124;2023-03-01T13:42:49;7.40;53.40
5631;DHT22;2837;50.990;7.124;2023-03-01T13:45:34;7.50;53.10
5631;DHT22;2837;50.990;7.124;2023-03-01T13:48:16;7.50;53.30
5631;DHT22;2837;50.990;7.124;2023-03-01T13:50:50;7.50;53.10
5631;DHT22;2837;50.990;7.124;2023-03-01T13:53:19;7.50;53.00
5631;DHT22;2837;50.990;7.124;2023-03-01T13:55:57;7.50;52.80
5631;DHT22;2837;50.990;7.124;2023-03-01T13:58:29;7.50;52.40
5631;DHT22;2837;50.990;7.124;2023-03-01T14:01:05;7.50;52.40
5631;DHT22;2837;50.990;7.124;2023-03-01T14:03:33;7.60;52.20
5631;DHT22;2837;50.990;7.124;2023-03-01T14:06:08;7.60;52.20
5631;DHT22;2837;50.990;7.124;2023-03-01T14:08:36;7.70;52.40
5631;DHT22;2837;50.990;7.124;2023-03-01T14:13:54;7.80;51.90
5631;DHT22;2837;50.990;7.124;2023-03-01T14:16:45;7.80;52.40
5631;DHT22;2837;50.990;7.124;2023-03-01T14:19:24;7.80;52.50
5631;DHT22;2837;50.990;7.124;2023-03-01T14:24:34;7.90;52.90
5631;DHT22;2837;50.990;7.124;2023-03-01T14:27:02;7.90;53.50
5631;DHT22;2837;50.990;7.124;2023-03-01T14:29:36;7.90;54.30
5631;DHT22;2837;50.990;7.124;2023-03-01T14:32:21;7.90;55.00
5631;DHT22;2837;50.990;7.124;2023-03-01T14:34:49;7.90;55.70
5631;DHT22;2837;50.990;7.124;2023-03-01T14:37:34;7.90;56.20
5631;DHT22;2837;50.990;7.124;2023-03-01T14:40:02;7.80;56.30
5631;DHT22;2837;50.990;7.124;2023-03-01T14:42:33;7.80;56.70
5631;DHT22;2837;50.990;7.124;2023-03-01T14:45:00;7.80;57.10
5631;DHT22;2837;50.990;7.124;2023-03-01T14:47:31;7.80;57.00
5631;DHT22;2837;50.990;7.124;2023-03-01T14:50:04;7.80;56.40
5631;DHT22;2837;50.990;7.124;2023-03-01T14:52:40;7.80;56.60
5631;DHT22;2837;50.990;7.124;2023-03-01T14:55:16;7.80;56.40
5631;DHT22;2837;50.990;7.124;2023-03-01T14:57:45;7.80;56.60
5631;DHT22;2837;50.990;7.124;2023-03-01T15:00:19;7.70;56.80
5631;DHT22;2837;50.990;7.124;2023-03-01T15:02:47;7.70;57.10
5631;DHT22;2837;50.990;7.124;2023-03-01T15:05:14;7.80;57.00
5631;DHT22;2837;50.990;7.124;2023-03-01T15:07:42;7.80;57.00
5631;DHT22;2837;50.990;7.124;2023-03-01T15:10:22;7.80;57.30
5631;DHT22;2837;50.990;7.124;2023-03-01T15:12:49;7.80;56.60
5631;DHT22;2837;50.990;7.124;2023-03-01T15:17:52;7.70;56.50
5631;DHT22;2837;50.990;7.124;2023-03-01T15:20:20;7.70;56.80
5631;DHT22;2837;50.990;7.124;2023-03-01T15:22:51;7.70;56.60
5631;DHT22;2837;50.990;7.124;2023-03-01T15:25:19;7.70;56.80
5631;DHT22;2837;50.990;7.124;2023-03-01T15:27:50;7.70;56.60
5631;DHT22;2837;50.990;7.124;2023-03-01T15:30:26;7.70;56.50
5631;DHT22;2837;50.990;7.124;2023-03-01T15:35:53;7.70;56.20
5631;DHT22;2837;50.990;7.124;2023-03-01T15:41:02;7.70;56.40
5631;DHT22;2837;50.990;7.124;2023-03-01T15:43:46;7.80;56.10
5631;DHT22;2837;50.990;7.124;2023-03-01T15:46:34;7.80;56.40
5631;DHT22;2837;50.990;7.124;2023-03-01T15:55:00;7.80;55.60
5631;DHT22;2837;50.990;7.124;2023-03-01T15:57:26;7.80;55.20
5631;DHT22;2837;50.990;7.124;2023-03-01T15:59:52;7.80;55.00
5631;DHT22;2837;50.990;7.124;2023-03-01T16:02:17;7.70;54.90
5631;DHT22;2837;50.990;7.124;2023-03-01T16:04:46;7.80;54.90
5631;DHT22;2837;50.990;7.124;2023-03-01T16:07:12;7.80;54.80
5631;DHT22;2837;50.990;7.124;2023-03-01T16:09:37;7.70;54.80
5631;DHT22;2837;50.990;7.124;2023-03-01T16:12:03;7.70;54.80
5631;DHT22;2837;50.990;7.124;2023-03-01T16:14:29;7.70;54.90
5631;DHT22;2837;50.990;7.124;2023-03-01T16:16:54;7.70;55.20
5631;DHT22;2837;50.990;7.124;2023-03-01T16:19:20;7.60;55.10
5631;DHT22;2837;50.990;7.124;2023-03-01T16:21:45;7.60;55.40
5631;DHT22;2837;50.990;7.124;2023-03-01T16:24:12;7.60;55.30
5631;DHT22;2837;50.990;7.124;2023-03-01T16:26:38;7.60;55.30
5631;DHT22;2837;50.990;7.124;2023-03-01T16:29:04;7.70;55.10
5631;DHT22;2837;50.990;7.124;2023-03-01T16:31:30;7.60;54.50
5631;DHT22;2837;50.990;7.124;2023-03-01T16:33:57;7.60;54.80
5631;DHT22;2837;50.990;7.124;2023-03-01T16:36:24;7.60;55.10
5631;DHT22;2837;50.990;7.124;2023-03-01T16:38:51;7.60;55.30
5631;DHT22;2837;50.990;7.124;2023-03-01T16:41:19;7.60;55.30
5631;DHT22;2837;50.990;7.124;2023-03-01T16:43:45;7.50;55.60
5631;DHT22;2837;50.990;7.124;2023-03-01T16:46:22;7.50;55.50
5631;DHT22;2837;50.990;7.124;2023-03-01T16:48:49;7.40;55.40
5631;DHT22;2837;50.990;7.124;2023-03-01T16:51:15;7.40;55.50
5631;DHT22;2837;50.990;7.124;2023-03-01T16:53:41;7.40;55.50
5631;DHT22;2837;50.990;7.124;2023-03-01T16:56:08;7.40;55.30
5631;DHT22;2837;50.990;7.124;2023-03-01T16:58:35;7.30;55.60
5631;DHT22;2837;50.990;7.124;2023-03-01T17:01:10;7.20;55.60
5631;DHT22;2837;50.990;7.124;2023-03-01T17:03:37;7.30;55.40
5631;DHT22;2837;50.990;7.124;2023-03-01T17:06:08;7.30;55.30
5631;DHT22;2837;50.990;7.124;2023-03-01T17:08:36;7.20;55.50
5631;DHT22;2837;50.990;7.124;2023-03-01T17:11:09;7.20;55.30
5631;DHT22;2837;50.990;7.124;2023-03-01T17:13:36;7.20;55.30
5631;DHT22;2837;50.990;7.124;2023-03-01T17:16:04;7.20;55.20
5631;DHT22;2837;50.990;7.124;2023-03-01T17:18:30;7.10;55.30
5631;DHT22;2837;50.990;7.124;2023-03-01T17:20:55;7.10;55.20
5631;DHT22;2837;50.990;7.124;2023-03-01T17:23:21;7.10;55.20
5631;DHT22;2837;50.990;7.124;2023-03-01T17:25:46;7.10;55.30
5631;DHT22;2837;50.990;7.124;2023-03-01T17:28:13;7.00;55.20
5631;DHT22;2837;50.990;7.124;2023-03-01T17:30:43;7.00;55.40
5631;DHT22;2837;50.990;7.124;2023-03-01T17:33:10;6.90;55.30
5631;DHT22;2837;50.990;7.124;2023-03-01T17:35:36;6.90;55.60
5631;DHT22;2837;50.990;7.124;2023-03-01T17:38:06;6.80;55.90
5631;DHT22;2837;50.990;7.124;2023-03-01T17:40:32;6.70;56.00
5631;DHT22;2837;50.990;7.124;2023-03-01T17:42:58;6.80;56.00
5631;DHT22;2837;50.990;7.124;2023-03-01T17:45:24;6.80;55.60
5631;DHT22;2837;50.990;7.124;2023-03-01T17:47:49;6.70;55.40
5631;DHT22;2837;50.990;7.124;2023-03-01T17:50:15;6.70;55.30
5631;DHT22;2837;50.990;7.124;2023-03-01T17:52:41;6.60;55.50
5631;DHT22;2837;50.990;7.124;2023-03-01T17:55:08;6.60;55.40
5631;DHT22;2837;50.990;7.124;2023-03-01T17:57:34;6.60;55.40
5631;DHT22;2837;50.990;7.124;2023-03-01T17:59:59;6.60;55.40
5631;DHT22;2837;50.990;7.124;2023-03-01T18:02:25;6.50;55.70
5631;DHT22;2837;50.990;7.124;2023-03-01T18:04:51;6.40;56.10
5631;DHT22;2837;50.990;7.124;2023-03-01T18:07:18;6.50;56.40
5631;DHT22;2837;50.990;7.124;2023-03-01T18:09:44;6.20;56.50
5631;DHT22;2837;50.990;7.124;2023-03-01T18:12:09;6.30;56.10
5631;DHT22;2837;50.990;7.124;2023-03-01T18:14:35;6.30;55.80
5631;DHT22;2837;50.990;7.124;2023-03-01T18:17:01;6.30;56.60
5631;DHT22;2837;50.990;7.124;2023-03-01T18:19:31;6.20;56.20
5631;DHT22;2837;50.990;7.124;2023-03-01T18:21:56;6.20;56.00
5631;DHT22;2837;50.990;7.124;2023-03-01T18:24:22;6.20;56.00
5631;DHT22;2837;50.990;7.124;2023-03-01T18:26:47;6.20;55.80
5631;DHT22;2837;50.990;7.124;2023-03-01T18:29:13;6.10;55.80
5631;DHT22;2837;50.990;7.124;2023-03-01T18:31:39;6.10;57.00
5631;DHT22;2837;50.990;7.124;2023-03-01T18:34:04;6.00;57.30
5631;DHT22;2837;50.990;7.124;2023-03-01T18:36:33;5.90;57.60
5631;DHT22;2837;50.990;7.124;2023-03-01T18:39:01;5.90;58.60
5631;DHT22;2837;50.990;7.124;2023-03-01T18:41:27;5.80;58.30
5631;DHT22;2837;50.990;7.124;2023-03-01T18:43:54;5.80;58.00
5631;DHT22;2837;50.990;7.124;2023-03-01T18:46:20;5.90;57.30
5631;DHT22;2837;50.990;7.124;2023-03-01T18:48:46;5.80;57.30
5631;DHT22;2837;50.990;7.124;2023-03-01T18:51:21;5.80;57.40
5631;DHT22;2837;50.990;7.124;2023-03-01T18:53:47;5.80;56.90
5631;DHT22;2837;50.990;7.124;2023-03-01T18:56:13;6.00;57.00
5631;DHT22;2837;50.990;7.124;2023-03-01T18:58:38;5.90;57.10
5631;DHT22;2837;50.990;7.124;2023-03-01T19:01:15;5.80;57.60
5631;DHT22;2837;50.990;7.124;2023-03-01T19:03:41;5.80;57.70
5631;DHT22;2837;50.990;7.124;2023-03-01T19:06:07;5.70;58.20
5631;DHT22;2837;50.990;7.124;2023-03-01T19:08:33;5.70;58.50
5631;DHT22;2837;50.990;7.124;2023-03-01T19:11:03;5.60;58.60
5631;DHT22;2837;50.990;7.124;2023-03-01T19:13:29;5.60;58.90
5631;DHT22;2837;50.990;7.124;2023-03-01T19:16:09;5.60;58.30
5631;DHT22;2837;50.990;7.124;2023-03-01T19:18:37;5.70;58.00
5631;DHT22;2837;50.990;7.124;2023-03-01T19:21:04;5.60;58.00
5631;DHT22;2837;50.990;7.124;2023-03-01T19:23:31;5.60;58.20
5631;DHT22;2837;50.990;7.124;2023-03-01T19:26:02;5.70;57.90
5631;DHT22;2837;50.990;7.124;2023-03-01T19:28:28;5.70;57.60
5631;DHT22;2837;50.990;7.124;2023-03-01T19:31:01;5.70;57.50
5631;DHT22;2837;50.990;7.124;2023-03-01T19:33:29;5.70;58.80
5631;DHT22;2837;50.990;7.124;2023-03-01T19:35:55;5.70;57.30
5631;DHT22;2837;50.990;7.124;2023-03-01T19:38:21;5.70;57.80
5631;DHT22;2837;50.990;7.124;2023-03-01T19:40:47;5.60;57.70
5631;DHT22;2837;50.990;7.124;2023-03-01T19:43:12;5.60;57.60
5631;DHT22;2837;50.990;7.124;2023-03-01T19:45:38;5.60;57.60
5631;DHT22;2837;50.990;7.124;2023-03-01T19:48:04;5.70;57.30
5631;DHT22;2837;50.990;7.124;2023-03-01T19:50:29;5.70;57.50
5631;DHT22;2837;50.990;7.124;2023-03-01T19:52:55;5.60;57.50
5631;DHT22;2837;50.990;7.124;2023-03-01T19:55:20;5.60;57.50
5631;DHT22;2837;50.990;7.124;2023-03-01T19:57:46;5.50;57.70
5631;DHT22;2837;50.990;7.124;2023-03-01T20:00:12;5.50;57.40
5631;DHT22;2837;50.990;7.124;2023-03-01T20:02:37;5.50;57.30
5631;DHT22;2837;50.990;7.124;2023-03-01T20:05:03;5.50;57.60
5631;DHT22;2837;50.990;7.124;2023-03-01T20:07:29;5.40;57.90
5631;DHT22;2837;50.990;7.124;2023-03-01T20:09:54;5.40;57.90
5631;DHT22;2837;50.990;7.124;2023-03-01T20:12:20;5.50;57.30
5631;DHT22;2837;50.990;7.124;2023-03-01T20:14:45;5.40;57.50
5631;DHT22;2837;50.990;7.124;2023-03-01T20:17:13;5.40;57.80
5631;DHT22;2837;50.990;7.124;2023-03-01T20:19:38;5.40;57.90
5631;DHT22;2837;50.990;7.124;2023-03-01T20:22:04;5.30;57.60
5631;DHT22;2837;50.990;7.124;2023-03-01T20:24:29;5.30;58.10
5631;DHT22;2837;50.990;7.124;2023-03-01T20:26:59;5.30;58.20
5631;DHT22;2837;50.990;7.124;2023-03-01T20:29:25;5.20;58.60
5631;DHT22;2837;50.990;7.124;2023-03-01T20:31:50;5.20;58.90
5631;DHT22;2837;50.990;7.124;2023-03-01T20:34:16;5.20;58.70
5631;DHT22;2837;50.990;7.124;2023-03-01T20:36:42;5.10;59.20
5631;DHT22;2837;50.990;7.124;2023-03-01T20:39:09;5.10;59.40
5631;DHT22;2837;50.990;7.124;2023-03-01T20:41:36;5.00;59.10
5631;DHT22;2837;50.990;7.124;2023-03-01T20:44:02;5.10;59.00
5631;DHT22;2837;50.990;7.124;2023-03-01T20:46:32;5.00;59.30
5631;DHT22;2837;50.990;7.124;2023-03-01T20:48:58;4.90;60.10
5631;DHT22;2837;50.990;7.124;2023-03-01T20:51:24;4.90;60.60
5631;DHT22;2837;50.990;7.124;2023-03-01T20:53:50;4.90;60.80
5631;DHT22;2837;50.990;7.124;2023-03-01T20:56:17;4.90;62.10
5631;DHT22;2837;50.990;7.124;2023-03-01T20:58:43;4.80;62.10
5631;DHT22;2837;50.990;7.124;2023-03-01T21:01:12;4.70;62.70
5631;DHT22;2837;50.990;7.124;2023-03-01T21:03:39;4.60;63.50
5631;DHT22;2837;50.990;7.124;2023-03-01T21:06:05;4.50;64.60
5631;DHT22;2837;50.990;7.124;2023-03-01T21:08:31;4.50;65.50
5631;DHT22;2837;50.990;7.124;2023-03-01T21:10:57;4.40;67.10
5631;DHT22;2837;50.990;7.124;2023-03-01T21:13:24;4.30;67.80
5631;DHT22;2837;50.990;7.124;2023-03-01T21:15:56;4.30;69.40
5631;DHT22;2837;50.990;7.124;2023-03-01T21:18:22;4.30;71.90
5631;DHT22;2837;50.990;7.124;2023-03-01T21:21:13;4.30;71.30
5631;DHT22;2837;50.990;7.124;2023-03-01T21:23:41;4.30;73.60
5631;DHT22;2837;50.990;7.124;2023-03-01T21:26:09;4.30;76.10
5631;DHT22;2837;50.990;7.124;2023-03-01T21:28:36;4.20;78.60
5631;DHT22;2837;50.990;7.124;2023-03-01T21:31:26;4.30;78.00
5631;DHT22;2837;50.990;7.124;2023-03-01T21:33:55;4.20;82.70
5631;DHT22;2837;50.990;7.124;2023-03-01T21:36:22;4.30;82.00
5631;DHT22;2837;50.990;7.124;2023-03-01T21:38:49;4.20;85.80
5631;DHT22;2837;50.990;7.124;2023-03-01T21:41:18;4.10;90.20
5631;DHT22;2837;50.990;7.124;2023-03-01T21:43:46;4.10;90.90
5631;DHT22;2837;50.990;7.124;2023-03-01T21:46:15;4.00;94.10
5631;DHT22;2837;50.990;7.124;2023-03-01T21:48:42;4.00;92.90
5631;DHT22;2837;50.990;7.124;2023-03-01T21:51:10;4.00;94.60
5631;DHT22;2837;50.990;7.124;2023-03-01T21:53:36;4.10;99.90
5631;DHT22;2837;50.990;7.124;2023-03-01T21:56:03;4.00;99.90
5631;DHT22;2837;50.990;7.124;2023-03-01T21:58:30;3.90;99.90
